Mustafa Dayi — TCZF2 — position and weather

sailwx.info

Track history (hours):
 
Tides and Currents Weather Stations Pressure Air Temp Water Temp Dewpoint Dewpoint Depression Visibility Wind Speed Wind Dir Waves Ship Positions

Mustafa Dayi

Last reported at 2016-Apr-29 22:27 UTC. Time now 2016-Apr-30 15:06 UTC.
Position N 36°45' E 034°37'.

Length 183 m; draft 9 m.

Type: Ship (hazmat cat A). MMSI: 271042433.

Date/timePositionNaut miles runAvg speedWind from/ knotsBaromVisibWave heightAir tempDewpointWater temp
2016-Apr-29 22:27N 36°45' E 034°37'0 0.1
2016-Apr-29 20:33N 36°45' E 034°37'0 0.0
2016-Apr-29 18:29N 36°45' E 034°37'  
2016-Apr-27 13:33N 37°29' E 025°55'  
2016-Apr-25 01:33N 40°25' E 029°05'0 0.0
2016-Apr-25 00:27N 40°25' E 029°05'0 0.0
2016-Apr-24 23:08N 40°25' E 029°05'0 0.0
2016-Apr-24 21:20N 40°25' E 029°05'1 1.1
2016-Apr-24 20:33N 40°26' E 029°04'30 9.5
2016-Apr-24 17:23N 40°50' E 028°42'6 0.6
2016-Apr-24 06:29N 40°57' E 028°41'9 9.7
2016-Apr-24 05:33N 40°48' E 028°45'1414.5
2016-Apr-24 04:33N 40°44' E 029°04'1514.2
2016-Apr-24 03:32N 40°45' E 029°23'1413.5
2016-Apr-24 02:31N 40°45' E 029°41'4 0.4
2016-Apr-23 14:03N 40°45' E 029°35'5 8.0
2016-Apr-23 13:29N 40°45' E 029°29'1212.4
2016-Apr-23 12:33N 40°43' E 029°14'1515.1
2016-Apr-23 11:33N 40°40' E 028°55'1515.2
2016-Apr-23 10:33N 40°38' E 028°35'12713.7
2016-Apr-23 01:16N 39°56' E 025°58'1115.3
2016-Apr-23 00:32N 39°46' E 025°51'9515.8
2016-Apr-22 18:33N 38°12' E 025°46'1815.4
2016-Apr-22 17:24N 37°54' E 025°50'1415.8
2016-Apr-22 16:29N 37°40' E 025°54'1514.7
2016-Apr-22 15:27N 37°26' E 025°60'1415.0
2016-Apr-22 14:30N 37°17' E 026°13'1415.0
2016-Apr-22 13:32N 37°07' E 026°26'1615.0
2016-Apr-22 12:27N 36°55' E 026°41'3115.1
2016-Apr-22 10:24N 36°30' E 027°03'24015.7
2016-Apr-21 19:05N 32°51' E 029°02'1315.3
2016-Apr-21 18:16N 32°39' E 029°08'1114.7
2016-Apr-21 17:31N 32°29' E 029°13'1615.9
2016-Apr-21 16:30N 32°14' E 029°20'1615.4
2016-Apr-21 15:29N 31°59' E 029°26'52 3.4
2016-Apr-21 00:30N 31°11' E 029°47'59 5.8
2016-Apr-20 14:20N 31°53' E 030°34'16414.8
2016-Apr-20 03:18N 32°06' E 033°47'1114.6
2016-Apr-20 02:33N 32°04' E 033°59'1515.3
2016-Apr-20 01:33N 31°58' E 034°16'1515.1
2016-Apr-20 00:33N 31°52' E 034°33'  
Track history (hours):
 
Tides and Currents Weather Stations Pressure Air Temp Water Temp Dewpoint Dewpoint Depression Visibility Wind Speed Wind Dir Waves Ship Positions

Mustafa Dayi

Last reported at 2016-Apr-29 22:27 UTC. Time now 2016-Apr-30 15:06 UTC.
Position N 36°45' E 034°37'.

Length 183 m; draft 9 m.

Type: Ship (hazmat cat A). MMSI: 271042433.

Date/timePositionNaut miles runAvg speedWind from/ knotsBaromVisibWave heightAir tempDewpointWater temp
2016-Apr-29 22:27N 36°45' E 034°37'0 0.1
2016-Apr-29 20:33N 36°45' E 034°37'0 0.0
2016-Apr-29 18:29N 36°45' E 034°37'  
2016-Apr-27 13:33N 37°29' E 025°55'  
2016-Apr-25 01:33N 40°25' E 029°05'0 0.0
2016-Apr-25 00:27N 40°25' E 029°05'0 0.0
2016-Apr-24 23:08N 40°25' E 029°05'0 0.0
2016-Apr-24 21:20N 40°25' E 029°05'1 1.1
2016-Apr-24 20:33N 40°26' E 029°04'30 9.5
2016-Apr-24 17:23N 40°50' E 028°42'6 0.6
2016-Apr-24 06:29N 40°57' E 028°41'9 9.7
2016-Apr-24 05:33N 40°48' E 028°45'1414.5
2016-Apr-24 04:33N 40°44' E 029°04'1514.2
2016-Apr-24 03:32N 40°45' E 029°23'1413.5
2016-Apr-24 02:31N 40°45' E 029°41'4 0.4
2016-Apr-23 14:03N 40°45' E 029°35'5 8.0
2016-Apr-23 13:29N 40°45' E 029°29'1212.4
2016-Apr-23 12:33N 40°43' E 029°14'1515.1
2016-Apr-23 11:33N 40°40' E 028°55'1515.2
2016-Apr-23 10:33N 40°38' E 028°35'12713.7
2016-Apr-23 01:16N 39°56' E 025°58'1115.3
2016-Apr-23 00:32N 39°46' E 025°51'9515.8
2016-Apr-22 18:33N 38°12' E 025°46'1815.4
2016-Apr-22 17:24N 37°54' E 025°50'1415.8
2016-Apr-22 16:29N 37°40' E 025°54'1514.7
2016-Apr-22 15:27N 37°26' E 025°60'1415.0
2016-Apr-22 14:30N 37°17' E 026°13'1415.0
2016-Apr-22 13:32N 37°07' E 026°26'1615.0
2016-Apr-22 12:27N 36°55' E 026°41'3115.1
2016-Apr-22 10:24N 36°30' E 027°03'24015.7
2016-Apr-21 19:05N 32°51' E 029°02'1315.3
2016-Apr-21 18:16N 32°39' E 029°08'1114.7
2016-Apr-21 17:31N 32°29' E 029°13'1615.9
2016-Apr-21 16:30N 32°14' E 029°20'1615.4
2016-Apr-21 15:29N 31°59' E 029°26'52 3.4
2016-Apr-21 00:30N 31°11' E 029°47'59 5.8
2016-Apr-20 14:20N 31°53' E 030°34'16414.8
2016-Apr-20 03:18N 32°06' E 033°47'1114.6
2016-Apr-20 02:33N 32°04' E 033°59'1515.3
2016-Apr-20 01:33N 31°58' E 034°16'1515.1
2016-Apr-20 00:33N 31°52' E 034°33'  

Dump ship's entire track history